createdAt,value
2022-08-14T00:01:36.589Z,14.78
2022-08-14T00:04:03.667Z,14.73
2022-08-14T00:06:50.358Z,14.73
2022-08-14T00:09:17.543Z,14.74
2022-08-14T00:11:46.635Z,14.72
2022-08-14T00:14:17.274Z,14.71
2022-08-14T00:16:45.268Z,14.66
2022-08-14T00:19:19.779Z,14.64
2022-08-14T00:21:50.761Z,14.60
2022-08-14T00:24:23.247Z,14.54
2022-08-14T00:26:57.229Z,14.50
2022-08-14T00:29:25.618Z,14.50
2022-08-14T00:31:56.616Z,14.49
2022-08-14T00:34:36.754Z,14.43
2022-08-14T00:37:05.751Z,14.40
2022-08-14T00:39:33.287Z,14.43
2022-08-14T00:42:01.089Z,14.43
2022-08-14T00:44:32.825Z,14.40
2022-08-14T00:47:10.994Z,14.38
2022-08-14T00:49:43.375Z,14.38
2022-08-14T00:52:14.204Z,14.28
2022-08-14T00:54:47.794Z,14.23
2022-08-14T00:57:15.104Z,14.26
2022-08-14T00:59:44.171Z,14.27
2022-08-14T01:02:12.608Z,14.20
2022-08-14T01:04:54.497Z,14.19
2022-08-14T01:07:22.827Z,14.17
2022-08-14T01:09:54.767Z,14.09
2022-08-14T01:12:26.702Z,14.10
2022-08-14T01:15:02.042Z,14.12
2022-08-14T01:17:52.388Z,14.07
2022-08-14T01:20:40.993Z,14.06
2022-08-14T01:23:16.337Z,14.02
2022-08-14T01:25:47.391Z,14.03
2022-08-14T01:28:34.379Z,14.01
2022-08-14T01:31:01.961Z,13.95
2022-08-14T01:33:30.181Z,13.94
2022-08-14T01:36:04.717Z,13.91
2022-08-14T01:38:37.385Z,13.88
2022-08-14T01:41:15.042Z,13.80
2022-08-14T01:43:56.353Z,13.78
2022-08-14T01:46:25.396Z,13.73
2022-08-14T01:49:02.178Z,13.72
2022-08-14T01:51:29.894Z,13.74
2022-08-14T01:53:59.115Z,13.72
2022-08-14T01:56:37.043Z,13.67
2022-08-14T01:59:09.949Z,13.63
2022-08-14T02:01:58.122Z,13.66
2022-08-14T02:04:54.703Z,13.64
2022-08-14T02:07:17.598Z,13.56
2022-08-14T02:10:01.607Z,13.54
2022-08-14T02:12:29.220Z,13.48
2022-08-14T02:15:00.703Z,13.44
2022-08-14T02:17:30.709Z,13.44
2022-08-14T02:19:57.923Z,13.43
2022-08-14T02:22:28.684Z,13.42
2022-08-14T02:25:00.125Z,13.41
2022-08-14T02:28:22.973Z,13.36
2022-08-14T02:30:16.552Z,13.37
2022-08-14T02:32:46.934Z,13.34
2022-08-14T02:35:17.780Z,13.31
2022-08-14T02:37:47.810Z,13.30
2022-08-14T02:40:18.511Z,13.27
2022-08-14T02:42:54.241Z,13.29
2022-08-14T02:45:33.422Z,13.28
2022-08-14T02:48:10.375Z,13.21
2022-08-14T02:50:54.353Z,13.26
2022-08-14T02:53:21.028Z,13.23
2022-08-14T02:55:48.197Z,13.19
2022-08-14T02:58:21.376Z,13.27
2022-08-14T03:00:57.283Z,13.18
2022-08-14T03:03:24.839Z,13.15
2022-08-14T03:05:54.229Z,13.15
2022-08-14T03:08:22.684Z,13.15
2022-08-14T03:10:52.292Z,13.15
2022-08-14T03:13:21.536Z,13.19
2022-08-14T03:15:55.786Z,13.18
2022-08-14T03:18:32.039Z,13.18
2022-08-14T03:21:09.582Z,13.16
2022-08-14T03:23:38.420Z,13.14
2022-08-14T03:26:13.027Z,13.07
2022-08-14T03:28:48.307Z,13.09
2022-08-14T03:31:15.907Z,13.05
2022-08-14T03:33:43.634Z,12.99
2022-08-14T03:37:37.552Z,12.96
2022-08-14T03:39:13.005Z,12.93
2022-08-14T03:41:49.804Z,12.92
2022-08-14T03:45:26.480Z,12.84
2022-08-14T03:47:03.695Z,12.81
2022-08-14T03:49:30.545Z,12.84
2022-08-14T03:52:00.671Z,12.82
2022-08-14T03:54:28.952Z,12.78
2022-08-14T03:57:02.668Z,12.77
2022-08-14T03:59:31.503Z,12.76
2022-08-14T04:02:01.714Z,12.78
2022-08-14T04:04:30.842Z,12.78
2022-08-14T04:06:59.583Z,12.86
2022-08-14T04:09:27.462Z,12.95
2022-08-14T04:11:56.281Z,12.95
2022-08-14T04:14:25.124Z,12.94
2022-08-14T04:16:51.852Z,12.92
2022-08-14T04:19:20.588Z,12.93
2022-08-14T04:22:03.330Z,12.97
2022-08-14T04:24:37.631Z,12.98
2022-08-14T04:27:11.486Z,12.96
2022-08-14T04:29:40.159Z,12.97
2022-08-14T04:32:58.293Z,13.02
2022-08-14T04:34:57.667Z,13.07
2022-08-14T04:37:45.210Z,13.17
2022-08-14T04:40:32.523Z,13.27
2022-08-14T04:43:21.000Z,13.33
2022-08-14T04:45:51.146Z,13.44
2022-08-14T04:48:36.771Z,13.52
2022-08-14T04:51:12.915Z,13.65
2022-08-14T04:53:43.718Z,13.77
2022-08-14T04:56:31.428Z,13.87
2022-08-14T04:59:10.512Z,14.00
2022-08-14T05:01:49.127Z,14.14
2022-08-14T05:04:21.294Z,14.21
2022-08-14T05:06:53.623Z,14.29
2022-08-14T05:09:21.773Z,14.39
2022-08-14T05:11:49.870Z,14.50
2022-08-14T05:14:46.134Z,14.61
2022-08-14T05:17:06.909Z,14.74
2022-08-14T05:19:33.956Z,14.83
2022-08-14T05:22:16.453Z,14.94
2022-08-14T05:24:51.537Z,15.04
2022-08-14T05:27:22.913Z,15.13
2022-08-14T05:29:56.879Z,15.27
2022-08-14T05:32:27.964Z,15.39
2022-08-14T05:34:58.146Z,15.59
2022-08-14T05:37:27.233Z,15.89
2022-08-14T05:39:55.117Z,16.09
2022-08-14T05:42:26.951Z,16.26
2022-08-14T05:44:56.375Z,16.55
2022-08-14T05:47:23.987Z,16.97
2022-08-14T05:49:51.511Z,17.17
2022-08-14T05:52:18.981Z,17.35
2022-08-14T05:55:07.386Z,17.58
2022-08-14T05:57:45.771Z,17.65
2022-08-14T06:00:13.532Z,17.79
2022-08-14T06:02:57.315Z,17.93
2022-08-14T06:05:24.162Z,18.14
2022-08-14T06:07:57.427Z,18.40
2022-08-14T06:10:25.264Z,18.57
2022-08-14T06:12:55.857Z,18.75
2022-08-14T06:15:29.379Z,18.99
2022-08-14T06:17:58.854Z,19.10
2022-08-14T06:20:26.456Z,19.24
2022-08-14T06:22:55.499Z,19.54
2022-08-14T06:25:23.620Z,19.68
2022-08-14T06:27:51.866Z,19.80
2022-08-14T06:30:21.966Z,20.07
2022-08-14T06:32:52.355Z,20.30
2022-08-14T06:35:20.909Z,20.29
2022-08-14T06:37:56.671Z,20.30
2022-08-14T06:40:30.218Z,20.45
2022-08-14T06:43:07.191Z,20.67
2022-08-14T06:45:36.390Z,20.76
2022-08-14T06:48:06.248Z,20.98
2022-08-14T06:50:39.790Z,20.92
2022-08-14T06:53:07.398Z,21.29
2022-08-14T06:55:34.443Z,21.56
2022-08-14T06:58:04.468Z,21.60
2022-08-14T07:00:32.810Z,21.89
2022-08-14T07:03:19.178Z,22.29
2022-08-14T07:05:57.671Z,22.88
2022-08-14T07:08:31.356Z,22.99
2022-08-14T07:11:01.300Z,23.29
2022-08-14T07:13:30.579Z,23.58
2022-08-14T07:16:00.493Z,23.61
2022-08-14T07:18:30.245Z,23.68
2022-08-14T07:20:59.386Z,24.05
2022-08-14T07:23:26.658Z,24.30
2022-08-14T07:25:56.537Z,24.50
2022-08-14T07:28:28.271Z,24.72
2022-08-14T07:31:05.062Z,25.13
2022-08-14T07:33:36.756Z,25.29
2022-08-14T07:36:26.507Z,25.55
2022-08-14T07:38:53.908Z,26.00
2022-08-14T07:41:20.567Z,25.94
2022-08-14T07:43:55.722Z,26.09
2022-08-14T07:46:29.608Z,26.48
2022-08-14T07:48:58.754Z,26.89
2022-08-14T07:51:32.610Z,27.14
2022-08-14T07:54:04.247Z,27.61
2022-08-14T07:56:48.216Z,27.80
2022-08-14T07:59:18.545Z,27.83
2022-08-14T08:01:51.418Z,28.42
2022-08-14T08:04:25.063Z,28.28
2022-08-14T08:06:53.587Z,28.40
2022-08-14T08:09:32.328Z,28.26
2022-08-14T08:12:09.225Z,28.53
2022-08-14T08:14:55.447Z,28.30
2022-08-14T08:17:24.682Z,29.48
2022-08-14T08:19:51.785Z,29.94
2022-08-14T08:22:19.739Z,29.86
2022-08-14T08:24:46.439Z,30.12
2022-08-14T08:27:19.846Z,30.31
2022-08-14T08:29:51.065Z,30.46
2022-08-14T08:32:18.406Z,30.65
2022-08-14T08:34:46.953Z,31.16
2022-08-14T08:37:14.788Z,31.26
2022-08-14T08:40:02.564Z,31.49
2022-08-14T08:42:38.757Z,31.72
2022-08-14T08:45:20.667Z,31.76
2022-08-14T08:47:48.747Z,32.09
2022-08-14T08:53:02.236Z,32.40
2022-08-14T08:55:32.547Z,32.74
2022-08-14T08:58:05.570Z,33.13
2022-08-14T09:00:48.602Z,33.66
2022-08-14T09:03:20.504Z,33.57
2022-08-14T09:06:56.887Z,33.30
2022-08-14T09:08:52.571Z,33.70
2022-08-14T09:11:21.405Z,34.07
2022-08-14T09:13:53.858Z,34.62
2022-08-14T09:16:25.875Z,34.92
2022-08-14T09:18:53.178Z,32.48
2022-08-14T09:21:21.282Z,31.40
2022-08-14T09:24:29.501Z,31.34
2022-08-14T09:26:41.682Z,30.25
2022-08-14T09:29:09.807Z,29.02
2022-08-14T09:31:52.754Z,31.17
2022-08-14T09:34:47.402Z,31.32
2022-08-14T09:37:48.403Z,30.70
2022-08-14T09:40:44.106Z,30.06
2022-08-14T09:43:27.492Z,30.22
2022-08-14T09:45:58.317Z,31.96
2022-08-14T09:48:30.916Z,33.43
2022-08-14T09:54:18.400Z,34.39
2022-08-14T09:56:32.996Z,35.41
2022-08-14T09:59:16.053Z,35.65
2022-08-14T10:01:46.169Z,35.78
2022-08-14T10:04:33.120Z,35.80
2022-08-14T10:07:04.069Z,35.40
2022-08-14T10:09:33.388Z,35.20
2022-08-14T10:12:04.377Z,35.45
2022-08-14T10:14:36.569Z,36.21
2022-08-14T10:17:08.290Z,35.91
2022-08-14T10:19:46.906Z,36.19
2022-08-14T10:23:11.783Z,36.33
2022-08-14T10:25:12.176Z,36.59
2022-08-14T10:27:38.908Z,36.77
2022-08-14T10:30:13.839Z,37.09
2022-08-14T10:32:51.631Z,36.51
2022-08-14T10:35:22.299Z,41.94
2022-08-14T10:37:51.196Z,42.77
2022-08-14T10:40:43.526Z,44.77
2022-08-14T10:43:31.788Z,46.54
2022-08-14T10:46:21.592Z,44.66
2022-08-14T10:49:02.880Z,45.52
2022-08-14T10:51:36.275Z,44.59
2022-08-14T10:54:26.155Z,46.93
2022-08-14T10:56:55.988Z,48.12
2022-08-14T10:59:30.921Z,48.61
2022-08-14T11:02:02.316Z,45.97
2022-08-14T11:04:30.890Z,46.84
2022-08-14T11:06:58.569Z,48.53
2022-08-14T11:09:26.652Z,47.77
2022-08-14T11:12:36.677Z,48.81
2022-08-14T11:14:59.089Z,48.56
2022-08-14T11:17:28.602Z,49.35
2022-08-14T11:20:01.824Z,48.60
2022-08-14T11:23:03.368Z,48.96
2022-08-14T11:25:23.785Z,48.25
2022-08-14T11:27:51.566Z,47.85
2022-08-14T11:30:50.487Z,47.19
2022-08-14T11:33:09.259Z,45.48
2022-08-14T11:35:47.473Z,48.05
2022-08-14T11:38:17.972Z,46.28
2022-08-14T11:40:47.084Z,46.02
2022-08-14T11:43:15.379Z,41.70
2022-08-14T11:45:47.921Z,44.17
2022-08-14T11:49:03.229Z,46.75
2022-08-14T11:51:30.768Z,47.81
2022-08-14T11:54:06.189Z,47.09
2022-08-14T11:56:37.302Z,45.71
2022-08-14T11:59:06.882Z,45.72
2022-08-14T12:01:38.097Z,48.43
2022-08-14T12:04:31.931Z,49.07
2022-08-14T12:07:01.330Z,47.88
2022-08-14T12:09:33.411Z,47.73
2022-08-14T12:12:16.200Z,47.74
2022-08-14T12:15:02.195Z,48.26
2022-08-14T12:17:47.454Z,39.63
2022-08-14T12:20:29.847Z,36.13
2022-08-14T12:23:00.587Z,33.87
2022-08-14T12:25:28.893Z,33.32
2022-08-14T12:27:59.175Z,41.05
2022-08-14T12:30:42.800Z,45.33
2022-08-14T12:33:33.189Z,47.22
2022-08-14T12:36:04.520Z,43.75
2022-08-14T12:38:44.089Z,42.86
2022-08-14T12:41:21.377Z,46.15
2022-08-14T12:43:55.611Z,46.31
2022-08-14T12:46:28.775Z,47.53
2022-08-14T12:48:58.094Z,47.61
2022-08-14T12:51:27.555Z,49.08
2022-08-14T12:53:59.654Z,47.50
2022-08-14T12:56:32.966Z,48.52
2022-08-14T12:59:02.115Z,47.97
2022-08-14T13:01:31.397Z,48.69
2022-08-14T13:04:07.281Z,48.32
2022-08-14T13:06:37.193Z,48.65
2022-08-14T13:09:10.987Z,46.64
2022-08-14T13:11:44.899Z,46.44
2022-08-14T13:14:17.455Z,45.26
2022-08-14T13:16:45.698Z,46.26
2022-08-14T13:19:18.468Z,46.70
2022-08-14T13:22:05.011Z,46.21
2022-08-14T13:24:34.663Z,46.07
2022-08-14T13:27:04.726Z,45.09
2022-08-14T13:29:40.557Z,46.12
2022-08-14T13:32:09.521Z,47.33
2022-08-14T13:34:38.280Z,46.96
2022-08-14T13:37:07.276Z,46.71
2022-08-14T13:39:36.239Z,46.64
2022-08-14T13:42:08.774Z,44.83
2022-08-14T13:44:42.858Z,45.49
2022-08-14T13:47:12.160Z,45.66
2022-08-14T13:49:56.813Z,44.93
2022-08-14T13:52:51.930Z,44.44
2022-08-14T13:55:13.859Z,44.54
2022-08-14T13:57:49.489Z,43.54
2022-08-14T14:00:53.510Z,41.91
2022-08-14T14:03:24.565Z,38.88
2022-08-14T14:05:54.875Z,37.72
2022-08-14T14:08:46.778Z,36.59
2022-08-14T14:11:15.704Z,36.03
2022-08-14T14:13:45.862Z,35.25
2022-08-14T14:16:25.976Z,34.48
2022-08-14T14:18:56.448Z,33.71
2022-08-14T14:21:28.756Z,33.22
2022-08-14T14:23:56.271Z,33.12
2022-08-14T14:26:24.711Z,32.84
2022-08-14T14:28:56.449Z,32.94
2022-08-14T14:31:30.117Z,33.08
2022-08-14T14:34:12.524Z,32.46
2022-08-14T14:36:52.732Z,31.91
2022-08-14T14:39:28.770Z,31.83
2022-08-14T14:41:59.448Z,31.78
2022-08-14T14:44:42.910Z,31.45
2022-08-14T14:47:12.008Z,31.37
2022-08-14T14:49:51.632Z,31.26
2022-08-14T14:52:27.760Z,31.21
2022-08-14T14:54:58.284Z,30.78
2022-08-14T14:57:34.865Z,30.52
2022-08-14T15:00:12.656Z,30.24
2022-08-14T15:02:49.706Z,30.11
2022-08-14T15:05:20.130Z,30.40
2022-08-14T15:07:49.563Z,30.33
2022-08-14T15:10:27.844Z,30.16
2022-08-14T15:13:00.309Z,30.01
2022-08-14T15:15:32.683Z,29.77
2022-08-14T15:18:01.221Z,29.63
2022-08-14T15:20:30.352Z,29.71
2022-08-14T15:23:00.767Z,29.48
2022-08-14T15:25:31.742Z,29.42
2022-08-14T15:27:59.810Z,29.50
2022-08-14T15:30:32.055Z,29.48
2022-08-14T15:32:58.949Z,29.47
2022-08-14T15:35:27.951Z,29.40
2022-08-14T15:37:55.761Z,29.44
2022-08-14T15:40:23.530Z,29.47
2022-08-14T15:42:50.353Z,29.49
2022-08-14T15:45:17.263Z,29.40
2022-08-14T15:47:44.363Z,29.19
2022-08-14T15:50:13.043Z,29.36
2022-08-14T15:52:41.454Z,29.45
2022-08-14T15:55:15.653Z,29.42
2022-08-14T15:58:02.358Z,29.79
2022-08-14T16:00:52.515Z,30.02
2022-08-14T16:03:26.978Z,30.19
2022-08-14T16:06:01.839Z,30.11
2022-08-14T16:08:30.709Z,29.96
2022-08-14T16:11:03.869Z,29.84
2022-08-14T16:13:41.431Z,29.81
2022-08-14T16:16:34.628Z,29.73
2022-08-14T16:19:07.225Z,29.45
2022-08-14T16:21:39.159Z,29.20
2022-08-14T16:24:07.120Z,29.11
2022-08-14T16:26:54.937Z,29.17
2022-08-14T16:29:32.893Z,28.90
2022-08-14T16:32:32.739Z,28.82
2022-08-14T16:34:53.423Z,28.59
2022-08-14T16:37:30.637Z,28.32
2022-08-14T16:40:01.442Z,28.35
2022-08-14T16:42:39.207Z,28.27
2022-08-14T16:45:26.105Z,28.23
2022-08-14T16:47:56.007Z,28.25
2022-08-14T16:50:42.939Z,28.14
2022-08-14T16:53:10.358Z,28.37
2022-08-14T16:55:53.272Z,28.31
2022-08-14T16:58:27.206Z,28.11
2022-08-14T17:01:22.997Z,27.96
2022-08-14T17:03:53.096Z,27.63
2022-08-14T17:06:36.354Z,27.56
2022-08-14T17:09:05.710Z,27.58
2022-08-14T17:11:33.990Z,27.31
2022-08-14T17:14:06.616Z,27.14
2022-08-14T17:16:37.789Z,27.11
2022-08-14T17:19:13.571Z,26.94
2022-08-14T17:21:47.078Z,26.84
2022-08-14T17:24:55.769Z,26.69
2022-08-14T17:27:05.286Z,26.57
2022-08-14T17:29:44.955Z,26.48
2022-08-14T17:32:44.243Z,26.26
2022-08-14T17:35:10.125Z,26.17
2022-08-14T17:37:45.243Z,26.18
2022-08-14T17:40:19.206Z,26.07
2022-08-14T17:42:51.066Z,25.88
2022-08-14T17:45:28.622Z,25.65
2022-08-14T17:48:10.065Z,25.48
2022-08-14T17:51:01.142Z,25.31
2022-08-14T17:53:30.617Z,25.17
2022-08-14T17:56:01.717Z,25.13
2022-08-14T17:58:38.447Z,24.98
2022-08-14T18:01:13.585Z,24.85
2022-08-14T18:03:50.058Z,24.79
2022-08-14T18:06:38.360Z,24.75
2022-08-14T18:09:24.687Z,24.69
2022-08-14T18:11:58.186Z,24.56
2022-08-14T18:14:32.642Z,24.47
2022-08-14T18:17:22.980Z,24.44
2022-08-14T18:19:51.130Z,24.36
2022-08-14T18:22:32.327Z,24.28
2022-08-14T18:25:05.665Z,24.28
2022-08-14T18:27:48.789Z,24.19
2022-08-14T18:30:33.310Z,24.11
2022-08-14T18:33:22.378Z,24.01
2022-08-14T18:35:56.750Z,23.91
2022-08-14T18:38:42.775Z,23.88
2022-08-14T18:41:37.033Z,23.75
2022-08-14T18:44:10.876Z,23.65
2022-08-14T18:47:10.128Z,23.62
2022-08-14T18:49:57.870Z,23.63
2022-08-14T18:52:39.738Z,23.60
2022-08-14T18:55:15.188Z,23.48
2022-08-14T18:57:54.782Z,23.42
2022-08-14T19:00:33.005Z,23.38
2022-08-14T19:03:04.959Z,23.35
2022-08-14T19:05:47.425Z,23.35
2022-08-14T19:08:17.651Z,23.32
2022-08-14T19:10:53.176Z,23.28
2022-08-14T19:13:44.718Z,23.25
2022-08-14T19:16:23.274Z,23.23
2022-08-14T19:19:00.061Z,23.14
2022-08-14T19:21:32.976Z,23.11
2022-08-14T19:24:27.986Z,23.07
2022-08-14T19:27:16.728Z,22.96
2022-08-14T19:29:48.024Z,22.90
2022-08-14T19:32:36.781Z,22.88
2022-08-14T19:35:17.096Z,22.82
2022-08-14T19:37:52.321Z,22.82
2022-08-14T19:40:42.812Z,22.81
2022-08-14T19:43:22.719Z,22.76
2022-08-14T19:46:37.816Z,22.73
2022-08-14T19:48:57.165Z,22.70
2022-08-14T19:51:24.548Z,22.62
2022-08-14T19:54:13.450Z,22.57
2022-08-14T19:56:45.774Z,22.52
2022-08-14T19:59:18.609Z,22.48
2022-08-14T20:01:50.688Z,22.45
2022-08-14T20:04:46.593Z,22.40
2022-08-14T20:08:00.727Z,22.37
2022-08-14T20:11:11.322Z,22.37
2022-08-14T20:13:32.264Z,22.32
2022-08-14T20:16:11.894Z,22.29
2022-08-14T20:18:51.630Z,22.29
2022-08-14T20:21:21.547Z,22.29
2022-08-14T20:23:49.575Z,22.31
2022-08-14T20:26:31.366Z,22.24
2022-08-14T20:29:04.889Z,22.26
2022-08-14T20:31:37.279Z,22.26
2022-08-14T20:34:24.400Z,22.31
2022-08-14T20:37:10.009Z,22.31
2022-08-14T20:39:54.325Z,22.32
2022-08-14T20:42:43.786Z,22.31
2022-08-14T20:45:19.933Z,22.33
2022-08-14T20:47:56.451Z,22.32
2022-08-14T20:50:29.053Z,22.27
2022-08-14T20:53:00.994Z,22.23
2022-08-14T20:55:41.494Z,22.16
2022-08-14T20:58:43.409Z,22.10
2022-08-14T21:01:32.504Z,21.94
2022-08-14T21:04:02.301Z,21.81
2022-08-14T21:07:22.900Z,21.69
2022-08-14T21:09:43.933Z,21.59
2022-08-14T21:12:34.443Z,21.62
2022-08-14T21:15:00.726Z,21.61
2022-08-14T21:17:29.602Z,21.59
2022-08-14T21:19:56.798Z,21.48
2022-08-14T21:22:24.949Z,21.42
2022-08-14T21:25:02.263Z,21.44
2022-08-14T21:27:37.118Z,21.39
2022-08-14T21:30:21.289Z,21.36
2022-08-14T21:33:09.015Z,21.29
2022-08-14T21:35:44.441Z,21.17
2022-08-14T21:38:17.991Z,21.12
2022-08-14T21:40:50.450Z,21.08
2022-08-14T21:43:27.133Z,21.00
2022-08-14T21:45:58.118Z,20.87
2022-08-14T21:48:29.739Z,20.81
2022-08-14T21:51:54.461Z,20.74
2022-08-14T21:53:58.005Z,20.63
2022-08-14T21:56:37.272Z,20.52
2022-08-14T21:59:08.989Z,20.44
2022-08-14T22:02:01.860Z,20.38
2022-08-14T22:04:33.011Z,20.46
2022-08-14T22:07:05.813Z,20.34
2022-08-14T22:09:36.278Z,20.21
2022-08-14T22:12:07.293Z,20.12
2022-08-14T22:14:43.316Z,20.07
2022-08-14T22:17:16.413Z,20.04
2022-08-14T22:19:54.526Z,20.00
2022-08-14T22:22:26.652Z,19.92
2022-08-14T22:25:00.341Z,19.90
2022-08-14T22:27:32.480Z,19.84
2022-08-14T22:30:01.406Z,19.75
2022-08-14T22:32:56.909Z,19.70
2022-08-14T22:35:16.784Z,19.66
2022-08-14T22:37:44.716Z,19.59
2022-08-14T22:40:48.377Z,19.51
2022-08-14T22:43:08.033Z,19.50
2022-08-14T22:45:37.656Z,19.48
2022-08-14T22:48:10.985Z,19.47
2022-08-14T22:50:48.876Z,19.44
2022-08-14T22:53:20.937Z,19.45
2022-08-14T22:55:48.926Z,19.44
2022-08-14T22:58:30.418Z,19.45
2022-08-14T23:01:01.139Z,19.36
2022-08-14T23:03:28.991Z,19.29
2022-08-14T23:05:55.794Z,19.23
2022-08-14T23:08:59.207Z,19.24
2022-08-14T23:11:11.435Z,19.22
2022-08-14T23:13:40.559Z,19.17
2022-08-14T23:16:19.706Z,19.08
2022-08-14T23:18:54.001Z,19.04
2022-08-14T23:21:24.700Z,19.05
2022-08-14T23:23:55.331Z,19.03
2022-08-14T23:26:47.763Z,19.04
2022-08-14T23:29:11.984Z,19.09
2022-08-14T23:31:39.561Z,19.05
2022-08-14T23:34:08.888Z,19.02
2022-08-14T23:36:54.377Z,19.03
2022-08-14T23:39:32.576Z,19.04
2022-08-14T23:42:07.515Z,19.02
2022-08-14T23:44:37.684Z,19.01
2022-08-14T23:47:10.661Z,19.00
2022-08-14T23:49:37.957Z,18.93
2022-08-14T23:53:05.975Z,18.90
2022-08-14T23:55:13.024Z,18.91
2022-08-14T23:57:57.623Z,18.86
